createdAt,value
2018-08-24T00:00:49.722Z,88.14
2018-08-24T00:03:21.312Z,89.06
2018-08-24T00:05:52.892Z,88.96
2018-08-24T00:08:24.168Z,88.81
2018-08-24T00:10:54.847Z,88.74
2018-08-24T00:13:26.083Z,88.65
2018-08-24T00:15:57.653Z,89.20
2018-08-24T00:18:30.437Z,89.64
2018-08-24T00:21:01.322Z,89.55
2018-08-24T00:23:32.220Z,89.71
2018-08-24T00:26:02.829Z,89.88
2018-08-24T00:28:35.444Z,89.33
2018-08-24T00:31:06.103Z,88.58
2018-08-24T00:33:37.068Z,87.51
2018-08-24T00:36:07.887Z,87.33
2018-08-24T00:38:38.620Z,86.51
2018-08-24T00:41:09.164Z,86.14
2018-08-24T00:43:40.035Z,85.80
2018-08-24T00:46:11.017Z,85.06
2018-08-24T00:48:41.481Z,84.84
2018-08-24T00:51:12.037Z,85.33
2018-08-24T00:53:42.535Z,85.07
2018-08-24T00:56:13.399Z,85.69
2018-08-24T00:58:43.870Z,85.97
2018-08-24T01:01:14.596Z,86.17
2018-08-24T01:03:45.158Z,86.59
2018-08-24T01:06:18.402Z,87.20
2018-08-24T01:08:49.088Z,87.84
2018-08-24T01:11:19.677Z,89.18
2018-08-24T01:13:51.945Z,89.90
2018-08-24T01:16:27.524Z,90.29
2018-08-24T01:18:57.959Z,90.57
2018-08-24T01:21:28.714Z,91.73
2018-08-24T01:23:59.109Z,91.81
2018-08-24T01:26:29.766Z,92.01
2018-08-24T01:29:00.481Z,91.92
2018-08-24T01:31:31.170Z,92.06
2018-08-24T01:34:02.367Z,92.14
2018-08-24T01:36:32.866Z,92.46
2018-08-24T01:39:03.433Z,92.85
2018-08-24T01:41:33.897Z,92.92
2018-08-24T01:44:04.694Z,93.25
2018-08-24T01:46:35.163Z,93.46
2018-08-24T01:49:05.682Z,93.30
2018-08-24T01:51:36.227Z,93.40
2018-08-24T01:54:06.682Z,93.19
2018-08-24T01:56:37.137Z,93.74
2018-08-24T01:59:08.435Z,93.76
2018-08-24T02:01:39.659Z,94.00
2018-08-24T02:04:09.990Z,94.39
2018-08-24T02:06:40.863Z,93.98
2018-08-24T02:09:13.415Z,93.18
2018-08-24T02:11:43.974Z,93.67
2018-08-24T02:14:19.724Z,93.56
2018-08-24T02:16:50.269Z,95.29
2018-08-24T02:19:24.611Z,94.98
2018-08-24T02:22:00.166Z,95.76
2018-08-24T02:24:30.518Z,96.12
2018-08-24T02:27:01.005Z,96.61
2018-08-24T02:29:31.671Z,97.31
2018-08-24T02:32:01.997Z,97.16
2018-08-24T02:34:32.382Z,96.89
2018-08-24T02:37:02.829Z,97.01
2018-08-24T02:39:33.612Z,96.60
2018-08-24T02:42:04.337Z,96.78
2018-08-24T02:44:34.869Z,97.37
2018-08-24T02:47:06.563Z,97.88
2018-08-24T02:49:37.497Z,97.79
2018-08-24T02:52:08.046Z,97.15
2018-08-24T02:54:38.768Z,97.02
2018-08-24T02:57:09.338Z,97.21
2018-08-24T02:59:39.759Z,97.27
2018-08-24T03:02:10.227Z,96.99
2018-08-24T03:04:40.630Z,97.12
2018-08-24T03:07:12.241Z,97.01
2018-08-24T03:09:42.580Z,97.51
2018-08-24T03:12:12.935Z,97.24
2018-08-24T03:14:43.344Z,97.19
2018-08-24T03:17:18.822Z,97.09
2018-08-24T03:19:49.421Z,97.16
2018-08-24T03:22:20.384Z,97.45
2018-08-24T03:24:50.724Z,97.89
2018-08-24T03:27:21.119Z,97.45
2018-08-24T03:29:51.628Z,97.46
2018-08-24T03:32:22.044Z,98.38
2018-08-24T03:34:52.387Z,97.52
2018-08-24T03:37:22.839Z,97.21
2018-08-24T03:39:53.431Z,97.49
2018-08-24T03:42:23.901Z,97.07
2018-08-24T03:44:54.463Z,96.93
2018-08-24T03:47:24.956Z,97.88
2018-08-24T03:49:56.249Z,97.94
2018-08-24T03:52:26.759Z,97.94
2018-08-24T03:54:57.241Z,98.25
2018-08-24T03:57:27.708Z,98.02
2018-08-24T03:59:58.156Z,98.27
2018-08-24T04:02:28.892Z,98.37
2018-08-24T04:04:59.552Z,98.18
2018-08-24T04:07:29.867Z,98.18
2018-08-24T04:10:00.582Z,98.53
2018-08-24T04:12:31.118Z,98.54
2018-08-24T04:15:02.443Z,99.11
2018-08-24T04:17:37.740Z,98.98
2018-08-24T04:20:08.807Z,99.71
2018-08-24T04:22:39.400Z,100.00
2018-08-24T04:25:11.086Z,100.00
2018-08-24T04:27:41.455Z,99.96
2018-08-24T04:30:12.515Z,99.31
2018-08-24T04:32:42.936Z,99.45
2018-08-24T04:35:13.473Z,99.26
2018-08-24T04:37:43.981Z,98.59
2018-08-24T04:40:14.521Z,98.36
2018-08-24T04:42:45.021Z,98.00
2018-08-24T04:45:15.474Z,98.48
2018-08-24T04:47:45.807Z,98.32
2018-08-24T04:50:16.156Z,98.29
2018-08-24T04:52:46.756Z,98.81
2018-08-24T04:55:17.215Z,98.49
2018-08-24T04:57:47.707Z,98.52
2018-08-24T05:00:18.295Z,98.00
2018-08-24T05:02:48.871Z,97.98
2018-08-24T05:05:19.379Z,98.26
2018-08-24T05:07:49.981Z,97.99
2018-08-24T05:10:20.636Z,97.27
2018-08-24T05:12:51.071Z,96.18
2018-08-24T05:15:21.614Z,96.36
2018-08-24T05:17:52.289Z,95.57
2018-08-24T05:20:23.800Z,96.46
2018-08-24T05:22:54.383Z,91.19
2018-08-24T05:25:24.920Z,89.17
2018-08-24T05:27:55.492Z,86.80
2018-08-24T05:30:26.252Z,83.60
2018-08-24T05:32:56.737Z,81.25
2018-08-24T05:35:27.406Z,78.64
2018-08-24T05:37:57.901Z,77.23
2018-08-24T05:40:28.569Z,75.99
2018-08-24T05:42:59.842Z,74.97
2018-08-24T05:45:30.337Z,73.58
2018-08-24T05:48:01.233Z,72.86
2018-08-24T05:50:31.866Z,72.33
2018-08-24T05:53:02.599Z,71.40
2018-08-24T05:55:33.285Z,70.07
2018-08-24T05:58:03.993Z,68.60
2018-08-24T06:00:37.874Z,68.38
2018-08-24T06:03:09.924Z,67.27
2018-08-24T06:05:45.641Z,66.98
2018-08-24T06:08:17.086Z,66.85
2018-08-24T06:10:48.537Z,65.18
2018-08-24T06:13:20.892Z,64.13
2018-08-24T06:15:51.660Z,63.51
2018-08-24T06:18:22.626Z,62.82
2018-08-24T06:20:53.123Z,63.07
2018-08-24T06:23:23.712Z,62.43
2018-08-24T06:25:54.408Z,61.95
2018-08-24T06:28:25.014Z,61.22
2018-08-24T06:30:55.472Z,59.32
2018-08-24T06:33:26.201Z,58.06
2018-08-24T06:38:26.039Z,56.37
2018-08-24T06:40:56.792Z,54.57
2018-08-24T06:43:27.356Z,53.82
2018-08-24T06:45:57.856Z,53.99
2018-08-24T06:48:28.558Z,52.51
2018-08-24T06:50:59.379Z,51.95
2018-08-24T06:53:30.079Z,51.18
2018-08-24T06:56:00.843Z,49.87
2018-08-24T06:58:33.720Z,49.45
2018-08-24T07:01:04.485Z,48.80
2018-08-24T07:03:36.196Z,48.15
2018-08-24T07:06:07.355Z,47.26
2018-08-24T07:08:37.977Z,49.54
2018-08-24T07:11:09.205Z,48.33
2018-08-24T07:13:40.807Z,48.17
2018-08-24T07:16:12.548Z,46.51
2018-08-24T07:18:43.828Z,45.46
2018-08-24T07:21:14.562Z,44.64
2018-08-24T07:23:45.911Z,43.41
2018-08-24T07:26:16.430Z,42.79
2018-08-24T07:28:46.933Z,42.09
2018-08-24T07:31:17.590Z,41.55
2018-08-24T07:33:48.442Z,42.00
2018-08-24T07:36:19.575Z,42.16
2018-08-24T07:38:50.325Z,41.75
2018-08-24T07:41:21.042Z,40.78
2018-08-24T07:43:51.663Z,40.49
2018-08-24T07:46:22.412Z,40.49
2018-08-24T07:48:53.582Z,39.07
2018-08-24T07:51:24.631Z,38.87
2018-08-24T07:53:56.568Z,38.06
2018-08-24T07:56:29.517Z,37.56
2018-08-24T07:59:02.207Z,37.53
2018-08-24T08:01:33.229Z,36.84
2018-08-24T08:04:06.443Z,36.70
2018-08-24T08:06:37.529Z,36.51
2018-08-24T08:09:09.600Z,35.77
2018-08-24T08:11:41.716Z,35.25
2018-08-24T08:14:12.487Z,34.74
2018-08-24T08:16:43.100Z,34.45
2018-08-24T08:19:13.781Z,33.82
2018-08-24T08:21:48.094Z,33.52
2018-08-24T08:24:23.809Z,32.41
2018-08-24T08:26:54.501Z,32.99
2018-08-24T08:29:30.639Z,33.13
2018-08-24T08:32:01.346Z,32.26
2018-08-24T08:34:36.879Z,31.18
2018-08-24T08:37:07.913Z,31.71
2018-08-24T08:39:40.498Z,32.41
2018-08-24T08:42:11.267Z,32.28
2018-08-24T08:44:42.689Z,31.46
2018-08-24T08:47:13.362Z,31.08
2018-08-24T08:49:43.979Z,30.92
2018-08-24T08:52:14.875Z,31.38
2018-08-24T08:54:45.484Z,30.93
2018-08-24T08:57:16.146Z,29.08
2018-08-24T08:59:47.569Z,28.70
2018-08-24T09:02:18.307Z,28.56
2018-08-24T09:04:50.194Z,27.60
2018-08-24T09:07:22.840Z,27.46
2018-08-24T09:09:53.972Z,27.17
2018-08-24T09:12:25.916Z,27.06
2018-08-24T09:14:56.929Z,26.81
2018-08-24T09:17:33.112Z,27.25
2018-08-24T09:20:09.273Z,27.83
2018-08-24T09:22:45.026Z,26.72
2018-08-24T09:25:21.590Z,28.04
2018-08-24T09:27:58.769Z,27.86
2018-08-24T09:30:34.244Z,25.90
2018-08-24T09:33:06.428Z,25.01
2018-08-24T09:35:37.745Z,24.32
2018-08-24T09:38:09.012Z,23.94
2018-08-24T09:40:44.902Z,23.97
2018-08-24T09:43:20.531Z,22.38
2018-08-24T09:45:51.263Z,22.84
2018-08-24T09:48:29.552Z,22.71
2018-08-24T09:51:05.420Z,22.06
2018-08-24T09:54:12.519Z,23.62
2018-08-24T09:56:44.417Z,23.59
2018-08-24T09:59:14.936Z,23.84
2018-08-24T10:01:51.092Z,23.22
2018-08-24T10:04:27.722Z,26.93
2018-08-24T10:07:03.334Z,24.67
2018-08-24T10:09:34.026Z,26.17
2018-08-24T10:12:04.824Z,24.57
2018-08-24T10:14:35.626Z,24.19
2018-08-24T10:17:06.246Z,23.39
2018-08-24T10:19:37.621Z,23.19
2018-08-24T10:22:08.185Z,22.01
2018-08-24T10:24:39.359Z,22.10
2018-08-24T10:27:10.051Z,22.61
2018-08-24T10:29:40.888Z,22.99
2018-08-24T10:32:11.659Z,22.96
2018-08-24T10:34:42.294Z,23.45
2018-08-24T10:37:13.007Z,24.49
2018-08-24T10:39:43.663Z,24.06
2018-08-24T10:42:14.393Z,22.17
2018-08-24T10:44:45.072Z,22.20
2018-08-24T10:47:18.070Z,21.65
2018-08-24T10:49:48.927Z,20.60
2018-08-24T10:52:19.578Z,20.05
2018-08-24T10:54:50.565Z,19.74
2018-08-24T10:57:21.109Z,19.77
2018-08-24T10:59:51.862Z,18.90
2018-08-24T11:02:23.696Z,20.19
2018-08-24T11:04:54.564Z,20.87
2018-08-24T11:07:25.906Z,20.32
2018-08-24T11:09:56.442Z,19.01
2018-08-24T11:12:31.625Z,20.82
2018-08-24T11:15:04.620Z,19.08
2018-08-24T11:17:40.249Z,20.20
2018-08-24T11:20:10.852Z,20.98
2018-08-24T11:22:43.760Z,19.41
2018-08-24T11:25:16.720Z,19.00
2018-08-24T11:27:48.570Z,17.31
2018-08-24T11:30:21.125Z,17.08
2018-08-24T11:32:52.964Z,15.87
2018-08-24T11:35:24.793Z,15.96
2018-08-24T11:37:56.498Z,15.56
2018-08-24T11:40:27.404Z,16.06
2018-08-24T11:42:58.214Z,15.98
2018-08-24T11:45:29.903Z,16.27
2018-08-24T11:48:00.726Z,17.05
2018-08-24T11:50:31.584Z,17.65
2018-08-24T11:53:02.460Z,17.90
2018-08-24T11:55:33.091Z,17.33
2018-08-24T11:58:05.024Z,17.07
2018-08-24T12:00:36.098Z,20.12
2018-08-24T12:03:08.511Z,18.66
2018-08-24T12:05:39.107Z,22.12
2018-08-24T12:08:10.558Z,25.36
2018-08-24T12:10:41.181Z,24.22
2018-08-24T12:13:11.869Z,22.43
2018-08-24T12:15:42.749Z,21.18
2018-08-24T12:18:13.568Z,19.41
2018-08-24T12:20:45.226Z,18.56
2018-08-24T12:23:15.956Z,19.01
2018-08-24T12:25:47.751Z,17.74
2018-08-24T12:28:18.554Z,16.99
2018-08-24T12:30:50.465Z,20.68
2018-08-24T12:33:21.559Z,19.95
2018-08-24T12:35:52.247Z,20.89
2018-08-24T12:38:23.717Z,19.09
2018-08-24T12:40:56.582Z,19.25
2018-08-24T12:43:27.534Z,17.51
2018-08-24T12:45:59.428Z,17.40
2018-08-24T12:48:30.198Z,17.07
2018-08-24T12:51:00.927Z,17.54
2018-08-24T12:53:31.598Z,16.79
2018-08-24T12:56:02.448Z,17.96
2018-08-24T12:58:33.348Z,17.33
2018-08-24T13:01:04.147Z,17.73
2018-08-24T13:03:35.691Z,17.09
2018-08-24T13:06:07.160Z,17.33
2018-08-24T13:08:37.816Z,16.83
2018-08-24T13:11:10.573Z,17.07
2018-08-24T13:13:41.604Z,17.08
2018-08-24T13:16:13.681Z,17.11
2018-08-24T13:18:45.372Z,16.40
2018-08-24T13:21:17.771Z,17.41
2018-08-24T13:23:48.424Z,16.85
2018-08-24T13:26:19.138Z,17.11
2018-08-24T13:28:52.145Z,17.08
2018-08-24T13:31:25.327Z,16.42
2018-08-24T13:33:55.952Z,16.17
2018-08-24T13:36:27.929Z,15.50
2018-08-24T13:38:58.647Z,16.17
2018-08-24T13:41:29.499Z,15.92
2018-08-24T13:44:00.192Z,15.66
2018-08-24T13:46:31.525Z,15.24
2018-08-24T13:49:03.120Z,15.75
2018-08-24T13:51:33.917Z,16.07
2018-08-24T13:54:07.563Z,15.94
2018-08-24T13:56:41.694Z,18.51
2018-08-24T13:59:13.676Z,19.60
2018-08-24T14:01:45.861Z,20.76
2018-08-24T14:04:17.072Z,19.88
2018-08-24T14:06:48.931Z,19.71
2018-08-24T14:09:20.169Z,19.03
2018-08-24T14:11:50.988Z,19.55
2018-08-24T14:14:21.893Z,21.03
2018-08-24T14:16:53.256Z,23.87
2018-08-24T14:19:25.329Z,25.06
2018-08-24T14:21:56.374Z,26.63
2018-08-24T14:24:29.534Z,28.69
2018-08-24T14:27:01.311Z,30.72
2018-08-24T14:29:32.399Z,30.85
2018-08-24T14:32:05.912Z,31.90
2018-08-24T14:34:36.791Z,30.82
2018-08-24T14:37:07.784Z,31.81
2018-08-24T14:39:38.782Z,32.36
2018-08-24T14:42:19.156Z,31.55
2018-08-24T14:44:53.267Z,30.16
2018-08-24T14:47:27.241Z,30.86
2018-08-24T14:49:59.600Z,31.75
2018-08-24T14:52:30.857Z,33.45
2018-08-24T14:55:12.014Z,34.17
2018-08-24T14:57:44.841Z,35.98
2018-08-24T15:00:16.850Z,35.94
2018-08-24T15:03:04.012Z,36.35
2018-08-24T15:05:44.929Z,36.54
2018-08-24T15:08:26.215Z,37.26
2018-08-24T15:11:01.465Z,38.55
2018-08-24T15:13:33.450Z,39.40
2018-08-24T15:16:06.718Z,38.96
2018-08-24T15:18:45.788Z,39.15
2018-08-24T15:21:22.684Z,39.99
2018-08-24T15:23:57.867Z,39.26
2018-08-24T15:26:31.987Z,39.39
2018-08-24T15:29:06.629Z,39.54
2018-08-24T15:31:38.040Z,40.68
2018-08-24T15:34:09.182Z,42.06
2018-08-24T15:36:39.895Z,41.11
2018-08-24T15:39:13.860Z,40.47
2018-08-24T15:41:45.152Z,40.20
2018-08-24T15:44:15.858Z,40.62
2018-08-24T15:46:46.744Z,38.98
2018-08-24T15:49:17.487Z,38.77
2018-08-24T15:51:48.246Z,40.76
2018-08-24T15:54:20.998Z,40.89
2018-08-24T15:56:52.053Z,41.72
2018-08-24T15:59:25.328Z,40.49
2018-08-24T16:01:57.911Z,41.13
2018-08-24T16:04:28.769Z,41.31
2018-08-24T16:07:00.270Z,41.46
2018-08-24T16:09:31.054Z,41.75
2018-08-24T16:12:03.079Z,42.78
2018-08-24T16:14:34.310Z,42.32
2018-08-24T16:17:07.008Z,42.85
2018-08-24T16:19:37.709Z,43.71
2018-08-24T16:22:09.679Z,44.59
2018-08-24T16:24:43.889Z,44.28
2018-08-24T16:27:18.908Z,44.20
2018-08-24T16:29:49.513Z,45.94
2018-08-24T16:32:20.298Z,46.32
2018-08-24T16:34:51.212Z,46.91
2018-08-24T16:37:23.071Z,46.42
2018-08-24T16:39:54.674Z,46.12
2018-08-24T16:42:25.804Z,45.41
2018-08-24T16:44:56.728Z,45.69
2018-08-24T16:47:27.412Z,46.12
2018-08-24T16:49:58.513Z,47.04
2018-08-24T16:52:31.118Z,47.35
2018-08-24T16:55:01.808Z,47.68
2018-08-24T16:57:32.585Z,47.06
2018-08-24T17:00:03.443Z,47.39
2018-08-24T17:02:34.046Z,50.89
2018-08-24T17:05:05.343Z,49.98
2018-08-24T17:07:36.118Z,50.40
2018-08-24T17:10:08.321Z,50.75
2018-08-24T17:12:39.862Z,50.98
2018-08-24T17:15:11.479Z,51.24
2018-08-24T17:17:42.822Z,51.77
2018-08-24T17:20:13.866Z,51.49
2018-08-24T17:22:44.823Z,51.91
2018-08-24T17:25:16.768Z,52.51
2018-08-24T17:27:47.975Z,52.90
2018-08-24T17:30:20.083Z,52.63
2018-08-24T17:32:51.320Z,52.87
2018-08-24T17:35:23.124Z,53.10
2018-08-24T17:37:53.919Z,52.45
2018-08-24T17:40:27.268Z,53.48
2018-08-24T17:42:58.439Z,53.42
2018-08-24T17:45:29.763Z,55.23
2018-08-24T17:48:00.873Z,55.00
2018-08-24T17:50:31.730Z,55.06
2018-08-24T17:53:03.081Z,56.29
2018-08-24T17:55:34.952Z,56.30
2018-08-24T17:58:06.897Z,56.81
2018-08-24T18:00:38.698Z,56.76
2018-08-24T18:03:10.050Z,58.05
2018-08-24T18:05:41.982Z,57.11
2018-08-24T18:08:15.081Z,57.26
2018-08-24T18:10:48.078Z,56.81
2018-08-24T18:13:19.951Z,56.77
2018-08-24T18:15:51.457Z,55.98
2018-08-24T18:18:23.317Z,57.93
2018-08-24T18:20:55.029Z,59.06
2018-08-24T18:23:26.605Z,60.61
2018-08-24T18:25:58.473Z,61.60
2018-08-24T18:28:30.011Z,62.50
2018-08-24T18:31:02.440Z,62.92
2018-08-24T18:33:35.772Z,64.01
2018-08-24T18:36:08.011Z,64.43
2018-08-24T18:38:41.138Z,65.09
2018-08-24T18:41:13.412Z,65.92
2018-08-24T18:43:45.253Z,66.39
2018-08-24T18:46:17.077Z,66.68
2018-08-24T18:48:48.699Z,67.05
2018-08-24T18:51:20.392Z,67.30
2018-08-24T18:53:52.136Z,66.89
2018-08-24T18:56:23.805Z,67.40
2018-08-24T18:58:56.279Z,66.81
2018-08-24T19:01:27.755Z,67.12
2018-08-24T19:04:01.614Z,67.33
2018-08-24T19:06:33.216Z,66.93
2018-08-24T19:09:06.083Z,68.01
2018-08-24T19:11:42.531Z,68.73
2018-08-24T19:14:15.855Z,69.19
2018-08-24T19:16:47.357Z,69.17
2018-08-24T19:19:24.440Z,68.53
2018-08-24T19:22:03.871Z,69.59
2018-08-24T19:24:35.587Z,70.50
2018-08-24T19:27:06.525Z,69.90
2018-08-24T19:29:43.421Z,70.54
2018-08-24T19:32:15.204Z,70.94
2018-08-24T19:34:47.131Z,71.25
2018-08-24T19:37:18.894Z,71.51
2018-08-24T19:39:56.009Z,71.74
2018-08-24T19:42:28.137Z,72.34
2018-08-24T19:45:00.255Z,72.62
2018-08-24T19:47:37.742Z,72.30
2018-08-24T19:50:10.566Z,72.36
2018-08-24T19:52:42.770Z,72.22
2018-08-24T19:55:14.968Z,72.95
2018-08-24T19:57:51.302Z,73.47
2018-08-24T20:00:25.971Z,74.34
2018-08-24T20:02:59.020Z,74.00
2018-08-24T20:05:31.698Z,73.14
2018-08-24T20:09:14.347Z,72.29
2018-08-24T20:11:52.450Z,72.57
2018-08-24T20:14:29.170Z,74.83
2018-08-24T20:17:07.393Z,75.76
2018-08-24T20:19:39.683Z,76.58
2018-08-24T20:22:12.375Z,76.37
2018-08-24T20:24:44.921Z,75.79
2018-08-24T20:27:17.757Z,75.48
2018-08-24T20:29:49.533Z,75.40
2018-08-24T20:32:21.211Z,75.49
2018-08-24T20:34:52.840Z,75.63
2018-08-24T20:37:24.522Z,74.98
2018-08-24T20:39:56.136Z,74.88
2018-08-24T20:42:27.848Z,75.01
2018-08-24T20:44:59.879Z,74.73
2018-08-24T20:47:35.006Z,74.79
2018-08-24T20:50:06.124Z,75.37
2018-08-24T20:52:37.152Z,76.40
2018-08-24T20:55:08.017Z,76.07
2018-08-24T20:57:38.702Z,76.18
2018-08-24T21:00:09.673Z,75.95
2018-08-24T21:02:40.404Z,76.15
2018-08-24T21:05:11.451Z,76.50
2018-08-24T21:07:42.067Z,77.78
2018-08-24T21:10:13.658Z,78.82
2018-08-24T21:12:45.341Z,79.10
2018-08-24T21:15:16.196Z,78.42
2018-08-24T21:17:46.817Z,78.60
2018-08-24T21:20:17.445Z,78.50
2018-08-24T21:22:49.139Z,79.49
2018-08-24T21:25:19.985Z,79.78
2018-08-24T21:27:50.776Z,79.54
2018-08-24T21:30:21.622Z,79.39
2018-08-24T21:32:52.145Z,79.72
2018-08-24T21:35:22.628Z,79.17
2018-08-24T21:37:53.320Z,79.46
2018-08-24T21:40:24.547Z,79.39
2018-08-24T21:42:55.343Z,79.61
2018-08-24T21:45:26.438Z,79.49
2018-08-24T21:47:57.034Z,79.84
2018-08-24T21:50:27.787Z,80.05
2018-08-24T21:52:58.601Z,79.86
2018-08-24T21:55:29.061Z,79.77
2018-08-24T21:57:59.789Z,80.14
2018-08-24T22:00:30.877Z,80.21
2018-08-24T22:03:02.011Z,80.57
2018-08-24T22:05:33.779Z,80.88
2018-08-24T22:08:06.963Z,80.48
2018-08-24T22:10:37.532Z,80.63
2018-08-24T22:13:10.181Z,81.05
2018-08-24T22:15:40.892Z,80.96
2018-08-24T22:18:11.895Z,81.67
2018-08-24T22:20:42.566Z,82.20
2018-08-24T22:23:13.188Z,82.77
2018-08-24T22:25:44.220Z,83.04
2018-08-24T22:28:15.350Z,82.99
2018-08-24T22:30:46.196Z,83.15
2018-08-24T22:33:16.970Z,83.06
2018-08-24T22:35:47.726Z,83.12
2018-08-24T22:38:18.385Z,83.03
2018-08-24T22:40:49.720Z,83.49
2018-08-24T22:43:25.492Z,83.45
2018-08-24T22:45:56.295Z,83.96
2018-08-24T22:48:27.516Z,84.46
2018-08-24T22:50:58.355Z,84.71
2018-08-24T22:53:28.979Z,84.69
2018-08-24T22:55:59.514Z,85.31
2018-08-24T22:58:30.379Z,85.43
2018-08-24T23:01:01.038Z,85.74
2018-08-24T23:03:33.048Z,86.80
2018-08-24T23:06:06.405Z,86.82
2018-08-24T23:08:37.392Z,86.48
2018-08-24T23:11:08.193Z,86.40
2018-08-24T23:13:38.812Z,86.93
2018-08-24T23:16:10.264Z,86.91
2018-08-24T23:18:42.069Z,87.03
2018-08-24T23:21:13.209Z,86.58
2018-08-24T23:23:43.695Z,86.87
2018-08-24T23:26:14.486Z,87.95
2018-08-24T23:28:44.978Z,88.05
2018-08-24T23:31:15.460Z,87.77
2018-08-24T23:33:45.989Z,88.09
2018-08-24T23:36:16.520Z,88.51
2018-08-24T23:38:48.385Z,88.51
2018-08-24T23:41:18.809Z,88.80
2018-08-24T23:43:49.438Z,88.41
2018-08-24T23:46:20.023Z,88.42
2018-08-24T23:48:50.497Z,88.53
2018-08-24T23:51:21.055Z,89.25
2018-08-24T23:53:51.612Z,89.15
2018-08-24T23:56:22.206Z,89.60
2018-08-24T23:58:52.863Z,89.60
